createdAt,value
2023-11-18T00:00:25.618Z,4.75
2023-11-18T00:01:36.293Z,7.57
2023-11-18T00:02:39.846Z,9.15
2023-11-18T00:03:42.610Z,9.23
2023-11-18T00:04:45.279Z,6.40
2023-11-18T00:05:47.826Z,8.80
2023-11-18T00:06:50.633Z,9.57
2023-11-18T00:07:53.297Z,7.00
2023-11-18T00:08:56.269Z,6.40
2023-11-18T00:09:58.864Z,11.98
2023-11-18T00:11:01.668Z,8.90
2023-11-18T00:12:05.367Z,6.88
2023-11-18T00:13:08.288Z,6.28
2023-11-18T00:14:14.497Z,6.65
2023-11-18T00:15:19.086Z,7.90
2023-11-18T00:16:21.802Z,8.40
2023-11-18T00:17:24.417Z,8.02
2023-11-18T00:18:27.080Z,7.30
2023-11-18T00:19:29.680Z,5.65
2023-11-18T00:20:32.673Z,6.65
2023-11-18T00:21:37.270Z,11.75
2023-11-18T00:22:42.678Z,6.97
2023-11-18T00:23:46.776Z,8.48
2023-11-18T00:24:49.476Z,8.90
2023-11-18T00:25:53.931Z,6.65
2023-11-18T00:26:56.612Z,10.48
2023-11-18T00:27:59.186Z,5.75
2023-11-18T00:29:01.911Z,10.60
2023-11-18T00:30:06.288Z,7.93
2023-11-18T00:31:09.081Z,9.02
2023-11-18T00:32:11.924Z,6.95
2023-11-18T00:33:14.699Z,8.90
2023-11-18T00:34:18.962Z,13.60
2023-11-18T00:35:21.592Z,12.05
2023-11-18T00:36:24.177Z,9.75
2023-11-18T00:37:26.949Z,9.32
2023-11-18T00:38:29.572Z,9.05
2023-11-18T00:39:32.248Z,5.38
2023-11-18T00:40:36.472Z,6.30
2023-11-18T00:41:39.280Z,8.38
2023-11-18T00:42:42.003Z,11.75
2023-11-18T00:43:44.662Z,8.80
2023-11-18T00:44:47.429Z,6.72
2023-11-18T00:45:50.163Z,11.80
2023-11-18T00:46:53.331Z,11.88
2023-11-18T00:47:56.539Z,11.60
2023-11-18T00:48:59.290Z,9.98
2023-11-18T00:50:03.896Z,7.60
2023-11-18T00:51:09.869Z,7.88
2023-11-18T00:52:13.086Z,5.60
2023-11-18T00:53:15.690Z,6.55
2023-11-18T00:54:18.409Z,6.00
2023-11-18T00:55:21.241Z,5.63
2023-11-18T00:56:23.897Z,6.65
2023-11-18T00:57:26.581Z,8.57
2023-11-18T00:58:30.214Z,7.25
2023-11-18T00:59:32.978Z,8.27
2023-11-18T01:00:35.757Z,5.22
2023-11-18T01:01:38.556Z,7.45
2023-11-18T01:02:44.834Z,6.85
2023-11-18T01:03:47.670Z,5.75
2023-11-18T01:04:50.366Z,8.73
2023-11-18T01:05:53.046Z,12.60
2023-11-18T01:06:55.852Z,12.25
2023-11-18T01:07:59.377Z,9.88
2023-11-18T01:09:02.125Z,7.65
2023-11-18T01:10:09.559Z,8.25
2023-11-18T01:11:12.190Z,8.15
2023-11-18T01:12:15.032Z,7.35
2023-11-18T01:13:17.854Z,10.05
2023-11-18T01:14:20.569Z,7.53
2023-11-18T01:15:24.406Z,10.02
2023-11-18T01:16:27.119Z,9.77
2023-11-18T01:17:30.534Z,7.47
2023-11-18T01:18:33.227Z,10.90
2023-11-18T01:19:37.609Z,9.35
2023-11-18T01:20:40.252Z,6.82
2023-11-18T01:21:43.095Z,8.43
2023-11-18T01:22:46.910Z,11.35
2023-11-18T01:23:50.134Z,10.02
2023-11-18T01:24:52.734Z,10.30
2023-11-18T01:25:57.172Z,8.02
2023-11-18T01:27:03.133Z,5.45
2023-11-18T01:28:05.766Z,5.07
2023-11-18T01:29:08.417Z,5.50
2023-11-18T01:30:11.828Z,6.00
2023-11-18T01:31:14.752Z,6.07
2023-11-18T01:32:18.463Z,8.40
2023-11-18T01:33:21.118Z,9.80
2023-11-18T01:34:23.927Z,6.50
2023-11-18T01:35:27.975Z,5.38
2023-11-18T01:36:31.742Z,6.35
2023-11-18T01:37:34.337Z,8.02
2023-11-18T01:38:41.238Z,5.88
2023-11-18T01:39:44.249Z,4.50
2023-11-18T01:40:46.926Z,6.68
2023-11-18T01:41:50.498Z,10.10
2023-11-18T01:42:53.412Z,4.97
2023-11-18T01:43:56.325Z,5.57
2023-11-18T01:45:00.651Z,4.72
2023-11-18T01:46:11.392Z,4.45
2023-11-18T01:47:15.151Z,5.43
2023-11-18T01:48:18.565Z,5.80
2023-11-18T01:49:22.317Z,6.95
2023-11-18T01:50:25.256Z,6.07
2023-11-18T01:51:27.913Z,4.00
2023-11-18T01:52:31.780Z,5.13
2023-11-18T01:53:38.317Z,5.75
2023-11-18T01:54:41.839Z,4.47
2023-11-18T01:55:44.506Z,5.90
2023-11-18T01:56:49.905Z,6.20
2023-11-18T01:57:52.573Z,9.23
2023-11-18T01:58:55.686Z,6.20
2023-11-18T01:59:59.641Z,5.75
2023-11-18T02:01:03.459Z,7.25
2023-11-18T02:02:06.612Z,6.18
2023-11-18T02:03:10.783Z,6.78
2023-11-18T02:04:14.077Z,6.50
2023-11-18T02:05:19.389Z,5.82
2023-11-18T02:06:22.664Z,5.90
2023-11-18T02:07:25.547Z,5.40
2023-11-18T02:08:29.557Z,5.47
2023-11-18T02:09:32.514Z,4.95
2023-11-18T02:10:41.844Z,4.10
2023-11-18T02:11:58.522Z,4.70
2023-11-18T02:13:27.657Z,5.25
2023-11-18T02:14:34.479Z,5.43
2023-11-18T02:15:39.859Z,4.25
2023-11-18T02:16:45.968Z,4.93
2023-11-18T02:17:53.247Z,7.90
2023-11-18T02:18:57.136Z,6.78
2023-11-18T02:20:00.763Z,4.00
2023-11-18T02:21:05.263Z,3.35
2023-11-18T02:22:11.305Z,4.15
2023-11-18T02:23:14.203Z,6.53
2023-11-18T02:24:27.937Z,4.75
2023-11-18T02:25:34.280Z,5.22
2023-11-18T02:26:36.997Z,4.57
2023-11-18T02:27:39.855Z,3.80
2023-11-18T02:28:42.546Z,6.55
2023-11-18T02:29:50.088Z,6.88
2023-11-18T02:31:05.213Z,7.90
2023-11-18T02:32:40.824Z,5.40
2023-11-18T02:34:16.920Z,9.40
2023-11-18T02:35:27.566Z,3.55
2023-11-18T02:36:40.617Z,3.75
2023-11-18T02:37:48.542Z,5.95
2023-11-18T02:38:56.123Z,3.53
2023-11-18T02:40:15.575Z,2.97
2023-11-18T02:41:19.871Z,5.65
2023-11-18T02:42:24.167Z,3.78
2023-11-18T02:43:31.724Z,4.82
2023-11-18T02:44:36.698Z,5.38
2023-11-18T02:45:41.388Z,5.18
2023-11-18T02:46:44.985Z,7.95
2023-11-18T02:47:48.898Z,5.00
2023-11-18T02:48:52.813Z,2.90
2023-11-18T02:50:06.544Z,3.05
2023-11-18T02:51:09.555Z,2.60
2023-11-18T02:52:12.265Z,3.88
2023-11-18T02:53:14.943Z,3.78
2023-11-18T02:54:17.753Z,3.90
2023-11-18T02:55:23.762Z,4.25
2023-11-18T02:56:27.487Z,2.72
2023-11-18T02:57:31.356Z,3.33
2023-11-18T02:58:34.608Z,4.82
2023-11-18T02:59:37.237Z,3.17
2023-11-18T03:00:39.850Z,3.72
2023-11-18T03:01:44.453Z,3.38
2023-11-18T03:02:49.218Z,4.25
2023-11-18T03:03:52.159Z,3.90
2023-11-18T03:04:55.045Z,4.78
2023-11-18T03:05:58.041Z,3.78
2023-11-18T03:07:01.146Z,3.30
2023-11-18T03:08:07.559Z,4.30
2023-11-18T03:09:11.734Z,3.40
2023-11-18T03:10:22.040Z,3.25
2023-11-18T03:11:25.317Z,3.45
2023-11-18T03:12:29.225Z,4.43
2023-11-18T03:13:33.614Z,4.72
2023-11-18T03:14:36.445Z,4.20
2023-11-18T03:15:39.264Z,3.53
2023-11-18T03:16:42.015Z,3.63
2023-11-18T03:17:51.061Z,3.78
2023-11-18T03:18:53.930Z,4.00
2023-11-18T03:19:56.656Z,4.22
2023-11-18T03:21:01.599Z,4.63
2023-11-18T03:22:04.393Z,6.28
2023-11-18T03:23:08.878Z,3.70
2023-11-18T03:24:12.028Z,5.22
2023-11-18T03:25:14.894Z,3.15
2023-11-18T03:26:17.519Z,5.75
2023-11-18T03:27:20.140Z,3.88
2023-11-18T03:28:24.575Z,5.30
2023-11-18T03:29:27.255Z,4.30
2023-11-18T03:30:30.279Z,4.57
2023-11-18T03:31:33.443Z,4.13
2023-11-18T03:32:37.534Z,6.05
2023-11-18T03:33:41.022Z,4.10
2023-11-18T03:34:44.887Z,4.63
2023-11-18T03:35:47.484Z,3.50
2023-11-18T03:36:50.193Z,5.22
2023-11-18T03:37:53.126Z,3.90
2023-11-18T03:38:55.776Z,5.00
2023-11-18T03:39:58.552Z,5.40
2023-11-18T03:41:01.251Z,3.88
2023-11-18T03:42:04.144Z,4.82
2023-11-18T03:43:06.765Z,4.80
2023-11-18T03:44:09.678Z,3.05
2023-11-18T03:45:12.364Z,3.20
2023-11-18T03:46:16.727Z,2.60
2023-11-18T03:47:19.479Z,3.65
2023-11-18T03:48:22.312Z,3.50
2023-11-18T03:49:24.967Z,4.05
2023-11-18T03:50:27.948Z,3.08
2023-11-18T03:51:30.941Z,3.33
2023-11-18T03:52:33.609Z,3.30
2023-11-18T03:53:36.652Z,3.28
2023-11-18T03:54:39.250Z,2.42
2023-11-18T03:55:41.876Z,1.70
2023-11-18T03:56:44.575Z,2.70
2023-11-18T03:57:47.225Z,3.60
2023-11-18T03:58:49.903Z,2.83
2023-11-18T03:59:53.360Z,2.15
2023-11-18T04:00:56.400Z,2.72
2023-11-18T04:01:59.285Z,3.70
2023-11-18T04:03:01.969Z,3.65
2023-11-18T04:04:05.652Z,4.88
2023-11-18T04:05:09.726Z,3.70
2023-11-18T04:06:12.666Z,3.15
2023-11-18T04:07:15.403Z,3.13
2023-11-18T04:08:18.616Z,3.80
2023-11-18T04:09:21.232Z,2.58
2023-11-18T04:10:23.899Z,1.77
2023-11-18T04:11:26.731Z,2.47
2023-11-18T04:12:31.936Z,3.17
2023-11-18T04:13:34.566Z,2.95
2023-11-18T04:14:37.734Z,4.40
2023-11-18T04:15:40.299Z,4.63
2023-11-18T04:16:43.101Z,7.10
2023-11-18T04:17:46.055Z,3.40
2023-11-18T04:18:48.733Z,4.57
2023-11-18T04:19:51.361Z,3.65
2023-11-18T04:20:54.007Z,7.32
2023-11-18T04:21:56.781Z,3.80
2023-11-18T04:22:59.412Z,4.35
2023-11-18T04:24:02.174Z,3.40
2023-11-18T04:25:07.642Z,3.38
2023-11-18T04:26:10.951Z,3.45
2023-11-18T04:27:13.661Z,2.80
2023-11-18T04:28:16.506Z,2.85
2023-11-18T04:29:19.711Z,2.15
2023-11-18T04:30:22.431Z,3.58
2023-11-18T04:31:25.787Z,2.65
2023-11-18T04:32:28.418Z,2.58
2023-11-18T04:33:31.058Z,3.17
2023-11-18T04:34:34.221Z,3.65
2023-11-18T04:35:37.251Z,2.83
2023-11-18T04:36:42.993Z,5.55
2023-11-18T04:37:47.203Z,2.55
2023-11-18T04:38:50.001Z,2.85
2023-11-18T04:39:53.138Z,2.50
2023-11-18T04:40:56.806Z,2.70
2023-11-18T04:41:59.874Z,2.90
2023-11-18T04:43:02.542Z,2.95
2023-11-18T04:44:05.691Z,3.17
2023-11-18T04:45:10.764Z,2.17
2023-11-18T04:46:13.514Z,2.45
2023-11-18T04:47:19.657Z,1.70
2023-11-18T04:48:23.328Z,4.03
2023-11-18T04:49:26.297Z,3.38
2023-11-18T04:50:29.811Z,4.07
2023-11-18T04:51:32.340Z,3.15
2023-11-18T04:52:36.154Z,3.17
2023-11-18T04:53:40.518Z,3.08
2023-11-18T04:54:43.179Z,3.53
2023-11-18T04:55:46.040Z,2.42
2023-11-18T04:56:49.013Z,3.55
2023-11-18T04:57:51.631Z,3.08
2023-11-18T04:58:55.362Z,3.85
2023-11-18T04:59:58.167Z,2.55
2023-11-18T05:01:00.834Z,5.25
2023-11-18T05:02:04.456Z,2.50
2023-11-18T05:03:10.760Z,3.22
2023-11-18T05:04:13.468Z,2.55
2023-11-18T05:05:17.824Z,3.58
2023-11-18T05:06:21.458Z,3.83
2023-11-18T05:07:24.030Z,2.80
2023-11-18T05:08:27.079Z,2.97
2023-11-18T05:09:29.788Z,2.75
2023-11-18T05:10:32.435Z,2.88
2023-11-18T05:11:35.891Z,2.03
2023-11-18T05:12:39.253Z,5.65
2023-11-18T05:13:41.935Z,3.45
2023-11-18T05:14:44.615Z,3.63
2023-11-18T05:15:48.605Z,3.15
2023-11-18T05:16:51.403Z,3.45
2023-11-18T05:17:55.400Z,3.13
2023-11-18T05:18:58.106Z,2.97
2023-11-18T05:20:01.861Z,2.70
2023-11-18T05:21:06.680Z,2.15
2023-11-18T05:22:09.484Z,5.05
2023-11-18T05:23:13.562Z,3.42
2023-11-18T05:24:16.966Z,4.88
2023-11-18T05:25:20.465Z,3.90
2023-11-18T05:26:23.106Z,4.15
2023-11-18T05:27:27.756Z,4.53
2023-11-18T05:28:31.365Z,3.15
2023-11-18T05:29:34.066Z,3.08
2023-11-18T05:30:37.598Z,2.85
2023-11-18T05:31:40.237Z,3.00
2023-11-18T05:32:42.859Z,4.90
2023-11-18T05:33:53.179Z,2.80
2023-11-18T05:34:58.793Z,2.47
2023-11-18T05:36:01.571Z,3.28
2023-11-18T05:37:04.348Z,3.70
2023-11-18T05:38:07.554Z,2.65
2023-11-18T05:39:13.045Z,2.42
2023-11-18T05:40:17.004Z,3.10
2023-11-18T05:41:28.628Z,3.30
2023-11-18T05:42:32.336Z,4.35
2023-11-18T05:43:41.078Z,2.53
2023-11-18T05:44:44.033Z,3.83
2023-11-18T05:46:06.650Z,3.63
2023-11-18T05:47:12.887Z,3.25
2023-11-18T05:48:15.548Z,3.92
2023-11-18T05:49:19.130Z,4.47
2023-11-18T05:50:21.969Z,4.05
2023-11-18T05:51:27.821Z,4.95
2023-11-18T05:52:30.544Z,3.08
2023-11-18T05:53:34.549Z,3.03
2023-11-18T05:54:37.313Z,3.47
2023-11-18T05:55:39.880Z,3.97
2023-11-18T05:56:42.627Z,4.15
2023-11-18T05:57:46.682Z,3.95
2023-11-18T05:58:49.719Z,5.63
2023-11-18T05:59:52.287Z,5.93
2023-11-18T06:00:54.933Z,2.78
2023-11-18T06:01:58.287Z,4.18
2023-11-18T06:03:01.771Z,5.30
2023-11-18T06:04:05.242Z,2.13
2023-11-18T06:05:09.043Z,2.42
2023-11-18T06:06:15.150Z,4.53
2023-11-18T06:07:19.424Z,5.18
2023-11-18T06:08:24.092Z,3.60
2023-11-18T06:09:26.955Z,4.10
2023-11-18T06:10:32.400Z,4.70
2023-11-18T06:11:36.129Z,4.97
2023-11-18T06:12:41.344Z,10.02
2023-11-18T06:13:48.017Z,3.55
2023-11-18T06:14:52.644Z,2.30
2023-11-18T06:15:56.684Z,3.33
2023-11-18T06:17:00.888Z,5.80
2023-11-18T06:18:06.427Z,3.67
2023-11-18T06:19:09.352Z,4.57
2023-11-18T06:20:12.279Z,4.07
2023-11-18T06:21:19.861Z,4.43
2023-11-18T06:22:24.277Z,2.92
2023-11-18T06:23:28.453Z,2.55
2023-11-18T06:24:31.005Z,2.88
2023-11-18T06:25:35.796Z,5.07
2023-11-18T06:26:38.923Z,5.55
2023-11-18T06:27:41.473Z,4.65
2023-11-18T06:28:47.960Z,3.65
2023-11-18T06:29:51.503Z,3.35
2023-11-18T06:30:54.181Z,4.57
2023-11-18T06:31:56.898Z,3.05
2023-11-18T06:32:59.556Z,4.78
2023-11-18T06:34:03.796Z,5.15
2023-11-18T06:35:07.286Z,8.60
2023-11-18T06:36:21.241Z,5.05
2023-11-18T06:37:23.800Z,3.72
2023-11-18T06:38:26.660Z,7.30
2023-11-18T06:39:31.029Z,3.55
2023-11-18T06:40:34.031Z,3.53
2023-11-18T06:41:39.304Z,2.80
2023-11-18T06:42:43.282Z,3.25
2023-11-18T06:43:57.759Z,6.45
2023-11-18T06:45:01.479Z,9.23
2023-11-18T06:46:04.375Z,3.58
2023-11-18T06:47:07.793Z,5.10
2023-11-18T06:48:10.699Z,3.22
2023-11-18T06:49:16.734Z,4.32
2023-11-18T06:50:25.580Z,4.47
2023-11-18T06:51:29.334Z,4.80
2023-11-18T06:52:33.576Z,14.75
2023-11-18T06:53:36.202Z,5.13
2023-11-18T06:54:38.991Z,4.90
2023-11-18T06:55:41.782Z,8.07
2023-11-18T06:56:45.364Z,5.60
2023-11-18T06:57:49.025Z,3.60
2023-11-18T06:58:51.959Z,3.83
2023-11-18T06:59:54.697Z,3.45
2023-11-18T07:00:57.674Z,4.57
2023-11-18T07:02:00.532Z,5.40
2023-11-18T07:03:03.260Z,6.35
2023-11-18T07:04:09.901Z,6.32
2023-11-18T07:05:13.523Z,5.40
2023-11-18T07:06:27.904Z,3.38
2023-11-18T07:07:30.664Z,5.15
2023-11-18T07:08:36.249Z,5.50
2023-11-18T07:09:38.803Z,4.40
2023-11-18T07:10:42.309Z,4.85
2023-11-18T07:11:48.032Z,5.43
2023-11-18T07:13:58.088Z,6.78
2023-11-18T07:15:02.214Z,5.93
2023-11-18T07:16:06.749Z,3.83
2023-11-18T07:17:09.800Z,4.32
2023-11-18T07:18:13.223Z,4.38
2023-11-18T07:19:21.992Z,9.20
2023-11-18T07:20:25.238Z,7.95
2023-11-18T07:21:27.932Z,7.13
2023-11-18T07:22:30.570Z,6.03
2023-11-18T07:23:34.273Z,9.02
2023-11-18T07:24:37.018Z,4.22
2023-11-18T07:25:39.685Z,5.97
2023-11-18T07:26:42.541Z,5.60
2023-11-18T07:27:45.246Z,4.50
2023-11-18T07:28:48.030Z,3.60
2023-11-18T07:29:50.745Z,3.53
2023-11-18T07:30:54.987Z,2.95
2023-11-18T07:31:57.827Z,4.25
2023-11-18T07:33:02.499Z,6.25
2023-11-18T07:34:06.968Z,5.25
2023-11-18T07:35:10.700Z,5.05
2023-11-18T07:36:13.384Z,5.13
2023-11-18T07:37:16.017Z,5.53
2023-11-18T07:38:21.630Z,6.00
2023-11-18T07:39:31.140Z,4.18
2023-11-18T07:40:34.873Z,5.70
2023-11-18T07:41:37.484Z,8.02
2023-11-18T07:42:40.124Z,5.80
2023-11-18T07:43:43.227Z,10.00
2023-11-18T07:44:45.792Z,5.25
2023-11-18T07:45:51.590Z,4.70
2023-11-18T07:47:57.395Z,5.57
2023-11-18T07:49:02.973Z,3.80
2023-11-18T07:50:07.267Z,8.52
2023-11-18T07:51:09.882Z,2.58
2023-11-18T07:52:13.001Z,3.53
2023-11-18T07:53:15.919Z,5.38
2023-11-18T07:54:19.470Z,8.77
2023-11-18T07:55:24.478Z,6.53
2023-11-18T07:56:28.339Z,3.42
2023-11-18T07:57:30.951Z,6.97
2023-11-18T07:58:33.565Z,5.80
2023-11-18T07:59:36.243Z,4.32
2023-11-18T08:00:46.525Z,4.68
2023-11-18T08:01:50.030Z,3.35
2023-11-18T08:02:55.718Z,3.20
2023-11-18T08:03:58.427Z,3.15
2023-11-18T08:05:01.356Z,4.47
2023-11-18T08:06:08.090Z,2.58
2023-11-18T08:07:11.713Z,3.30
2023-11-18T08:08:18.201Z,3.05
2023-11-18T08:09:24.633Z,4.53
2023-11-18T08:10:29.769Z,2.70
2023-11-18T08:11:32.442Z,2.28
2023-11-18T08:12:36.008Z,3.60
2023-11-18T08:13:38.610Z,2.78
2023-11-18T08:14:41.206Z,3.20
2023-11-18T08:15:48.814Z,5.22
2023-11-18T08:16:52.564Z,9.00
2023-11-18T08:17:55.978Z,3.33
2023-11-18T08:18:58.607Z,5.28
2023-11-18T08:20:01.418Z,4.63
2023-11-18T08:21:06.276Z,8.48
2023-11-18T08:22:10.361Z,4.88
2023-11-18T08:23:13.044Z,3.20
2023-11-18T08:24:16.036Z,3.45
2023-11-18T08:25:19.059Z,5.50
2023-11-18T08:26:21.726Z,5.72
2023-11-18T08:27:24.397Z,5.03
2023-11-18T08:28:27.181Z,3.45
2023-11-18T08:29:33.020Z,4.18
2023-11-18T08:30:40.586Z,2.65
2023-11-18T08:31:43.461Z,3.95
2023-11-18T08:32:47.768Z,4.60
2023-11-18T08:33:50.450Z,2.85
2023-11-18T08:34:53.029Z,3.42
2023-11-18T08:35:55.696Z,3.50
2023-11-18T08:36:59.772Z,3.92
2023-11-18T08:38:03.096Z,4.25
2023-11-18T08:39:06.634Z,2.90
2023-11-18T08:40:17.432Z,3.55
2023-11-18T08:41:21.262Z,3.97
2023-11-18T08:42:25.601Z,3.88
2023-11-18T08:43:30.009Z,4.30
2023-11-18T08:44:33.734Z,2.45
2023-11-18T08:45:37.505Z,2.78
2023-11-18T08:46:41.060Z,2.83
2023-11-18T08:47:47.644Z,2.40
2023-11-18T08:48:50.412Z,2.25
2023-11-18T08:49:53.063Z,4.20
2023-11-18T08:50:55.679Z,2.53
2023-11-18T08:51:59.517Z,2.53
2023-11-18T08:53:05.539Z,2.40
2023-11-18T08:54:23.529Z,3.95
2023-11-18T08:55:43.804Z,2.53
2023-11-18T08:56:47.505Z,4.90
2023-11-18T08:58:00.851Z,4.18
2023-11-18T08:59:03.642Z,5.75
2023-11-18T09:00:27.269Z,5.20
2023-11-18T09:01:29.880Z,5.35
2023-11-18T09:02:49.703Z,4.43
2023-11-18T09:03:58.352Z,5.05
2023-11-18T09:05:01.017Z,2.85
2023-11-18T09:06:13.329Z,3.13
2023-11-18T09:08:20.884Z,3.25
2023-11-18T09:09:30.364Z,5.28
2023-11-18T09:10:35.017Z,4.32
2023-11-18T09:11:40.249Z,3.92
2023-11-18T09:12:46.405Z,4.38
2023-11-18T09:13:54.758Z,6.18
2023-11-18T09:14:58.528Z,3.20
2023-11-18T09:16:03.970Z,2.25
2023-11-18T09:17:08.061Z,2.83
2023-11-18T09:18:11.613Z,2.90
2023-11-18T09:19:15.755Z,2.75
2023-11-18T09:20:21.767Z,2.33
2023-11-18T09:21:26.771Z,2.78
2023-11-18T09:22:29.460Z,3.47
2023-11-18T09:23:35.771Z,3.53
2023-11-18T09:24:38.574Z,4.13
2023-11-18T09:25:41.709Z,3.67
2023-11-18T09:26:45.496Z,2.72
2023-11-18T09:27:48.110Z,4.38
2023-11-18T09:28:53.927Z,4.45
2023-11-18T09:29:56.988Z,2.03
2023-11-18T09:30:59.706Z,2.60
2023-11-18T09:32:07.309Z,1.77
2023-11-18T09:33:15.301Z,7.80
2023-11-18T09:34:18.156Z,7.47
2023-11-18T09:35:21.738Z,5.70
2023-11-18T09:36:24.479Z,4.45
2023-11-18T09:37:27.105Z,2.70
2023-11-18T09:38:36.669Z,2.80
2023-11-18T09:39:40.001Z,2.50
2023-11-18T09:40:47.559Z,4.57
2023-11-18T09:41:50.641Z,3.78
2023-11-18T09:42:54.263Z,2.45
2023-11-18T09:44:00.028Z,3.35
2023-11-18T09:46:14.735Z,1.80
2023-11-18T09:47:26.212Z,3.00
2023-11-18T09:48:29.121Z,5.57
2023-11-18T09:49:46.046Z,5.03
2023-11-18T09:50:51.681Z,4.78
2023-11-18T09:51:59.468Z,6.45
2023-11-18T09:53:12.519Z,3.88
2023-11-18T09:54:30.362Z,3.80
2023-11-18T09:56:11.126Z,6.13
2023-11-18T09:57:30.910Z,4.85
2023-11-18T09:58:45.036Z,6.55
2023-11-18T10:00:23.040Z,5.68
2023-11-18T10:01:29.523Z,4.15
2023-11-18T10:02:34.699Z,7.15
2023-11-18T10:03:39.508Z,3.45
2023-11-18T10:04:43.274Z,2.95
2023-11-18T10:05:48.136Z,4.55
2023-11-18T10:06:54.945Z,5.82
2023-11-18T10:08:00.602Z,2.63
2023-11-18T10:09:16.660Z,4.22
2023-11-18T10:10:22.037Z,3.75
2023-11-18T10:11:24.922Z,4.70
2023-11-18T10:12:28.101Z,7.38
2023-11-18T10:13:31.682Z,5.57
2023-11-18T10:14:40.881Z,6.30
2023-11-18T10:15:43.470Z,5.47
2023-11-18T10:16:48.151Z,4.30
2023-11-18T10:18:08.461Z,3.90
2023-11-18T10:19:13.482Z,5.47
2023-11-18T10:20:17.396Z,3.38
2023-11-18T10:21:40.943Z,3.60
2023-11-18T10:22:43.831Z,2.78
2023-11-18T10:24:06.507Z,2.97
2023-11-18T10:25:09.181Z,3.15
2023-11-18T10:26:11.798Z,2.33
2023-11-18T10:27:16.480Z,2.22
2023-11-18T10:28:30.267Z,3.33
2023-11-18T10:29:33.354Z,2.15
2023-11-18T10:30:48.165Z,2.30
2023-11-18T10:32:02.872Z,3.15
2023-11-18T10:33:09.028Z,3.78
2023-11-18T10:34:16.824Z,5.93
2023-11-18T10:35:21.889Z,5.07
2023-11-18T10:36:25.601Z,2.33
2023-11-18T10:37:32.876Z,3.38
2023-11-18T10:38:47.830Z,3.92
2023-11-18T10:39:53.891Z,3.78
2023-11-18T10:40:59.324Z,3.38
2023-11-18T10:42:04.004Z,3.65
2023-11-18T10:43:10.919Z,2.47
2023-11-18T10:44:16.929Z,4.82
2023-11-18T10:45:28.643Z,2.05
2023-11-18T10:46:33.471Z,1.50
2023-11-18T10:47:44.970Z,3.83
2023-11-18T10:48:51.980Z,2.47
2023-11-18T10:49:59.678Z,2.42
2023-11-18T10:51:02.500Z,2.97
2023-11-18T10:52:09.384Z,2.50
2023-11-18T10:53:14.869Z,2.55
2023-11-18T10:54:20.477Z,3.60
2023-11-18T10:55:23.380Z,2.25
2023-11-18T10:56:30.536Z,2.20
2023-11-18T10:57:35.346Z,2.42
2023-11-18T10:58:42.242Z,3.55
2023-11-18T11:00:14.469Z,2.25
2023-11-18T11:01:44.120Z,2.95
2023-11-18T11:02:51.468Z,3.72
2023-11-18T11:03:57.579Z,2.90
2023-11-18T11:06:18.966Z,4.03
2023-11-18T11:07:25.006Z,3.05
2023-11-18T11:08:35.984Z,3.75
2023-11-18T11:09:47.237Z,2.25
2023-11-18T11:12:06.305Z,2.65
2023-11-18T11:13:10.346Z,2.53
2023-11-18T11:14:15.554Z,3.28
2023-11-18T11:15:23.933Z,1.98
2023-11-18T11:16:44.652Z,1.83
2023-11-18T11:17:56.745Z,2.47
2023-11-18T11:19:10.080Z,2.97
2023-11-18T11:20:25.578Z,2.22
2023-11-18T11:21:31.070Z,3.03
2023-11-18T11:23:21.124Z,1.90
2023-11-18T11:24:47.995Z,2.70
2023-11-18T11:26:15.158Z,2.40
2023-11-18T11:27:40.240Z,3.35
2023-11-18T11:29:09.280Z,4.68
2023-11-18T11:30:23.720Z,2.03
2023-11-18T11:31:41.588Z,4.03
2023-11-18T11:33:01.557Z,3.03
2023-11-18T11:34:15.842Z,1.90
2023-11-18T11:35:26.094Z,3.38
2023-11-18T11:36:40.498Z,2.17
2023-11-18T11:37:44.976Z,2.03
2023-11-18T11:38:48.785Z,2.10
2023-11-18T11:39:55.153Z,2.38
2023-11-18T11:41:06.335Z,3.78
2023-11-18T11:42:10.611Z,2.70
2023-11-18T11:43:17.070Z,3.22
2023-11-18T11:44:23.050Z,2.35
2023-11-18T11:45:29.844Z,3.03
2023-11-18T11:46:38.546Z,1.60
2023-11-18T11:47:47.705Z,1.48
2023-11-18T11:48:56.501Z,3.13
2023-11-18T11:50:33.366Z,4.47
2023-11-18T11:51:49.878Z,2.08
2023-11-18T11:53:00.734Z,2.20
2023-11-18T11:54:16.670Z,2.55
2023-11-18T11:55:34.632Z,1.73
2023-11-18T11:56:48.379Z,2.67
2023-11-18T11:57:59.968Z,3.50
2023-11-18T11:59:04.131Z,3.40
2023-11-18T12:00:17.680Z,2.83
2023-11-18T12:01:34.720Z,3.80
2023-11-18T12:02:37.601Z,3.17
2023-11-18T12:03:46.089Z,2.22
2023-11-18T12:04:53.778Z,3.15
2023-11-18T12:05:57.563Z,2.28
2023-11-18T12:07:12.324Z,2.00
2023-11-18T12:08:19.882Z,1.98
2023-11-18T12:09:22.953Z,3.28
2023-11-18T12:10:32.698Z,1.95
2023-11-18T12:11:47.470Z,2.03
2023-11-18T12:12:50.253Z,2.15
2023-11-18T12:14:25.524Z,3.00
2023-11-18T12:16:05.317Z,3.20
2023-11-18T12:17:15.282Z,2.35
2023-11-18T12:18:19.004Z,2.83
2023-11-18T12:19:58.161Z,2.13
2023-11-18T12:21:04.897Z,2.05
2023-11-18T12:22:14.306Z,3.80
2023-11-18T12:23:19.033Z,2.10
2023-11-18T12:24:23.665Z,1.48
2023-11-18T12:25:28.555Z,2.42
2023-11-18T12:26:41.438Z,1.67
2023-11-18T12:27:52.819Z,2.50
2023-11-18T12:28:56.978Z,2.88
2023-11-18T12:29:59.794Z,2.00
2023-11-18T12:31:08.124Z,2.05
2023-11-18T12:32:18.060Z,1.63
2023-11-18T12:33:24.329Z,2.13
2023-11-18T12:34:55.197Z,2.38
2023-11-18T12:36:19.408Z,1.90
2023-11-18T12:37:43.493Z,1.67
2023-11-18T12:39:39.012Z,2.25
2023-11-18T12:41:01.353Z,6.25
2023-11-18T12:42:21.372Z,3.50
2023-11-18T12:44:19.187Z,3.55
2023-11-18T12:45:56.665Z,2.70
2023-11-18T12:47:11.030Z,4.05
2023-11-18T12:48:16.487Z,1.65
2023-11-18T12:49:27.100Z,3.00
2023-11-18T12:50:33.440Z,4.53
2023-11-18T12:51:37.988Z,2.80
2023-11-18T12:52:43.435Z,2.42
2023-11-18T12:53:51.534Z,3.13
2023-11-18T12:54:59.779Z,4.13
2023-11-18T12:56:03.261Z,4.45
2023-11-18T12:57:09.065Z,2.88
2023-11-18T12:59:19.060Z,3.55
2023-11-18T13:00:29.036Z,6.20
2023-11-18T13:01:35.045Z,3.17
2023-11-18T13:02:40.522Z,2.28
2023-11-18T13:03:45.457Z,2.60
2023-11-18T13:04:51.459Z,3.80
2023-11-18T13:05:54.594Z,2.83
2023-11-18T13:06:59.339Z,3.75
2023-11-18T13:08:02.981Z,3.58
2023-11-18T13:09:10.998Z,3.10
2023-11-18T13:10:16.662Z,3.47
2023-11-18T13:11:19.762Z,2.47
2023-11-18T13:12:24.849Z,3.88
2023-11-18T13:13:28.152Z,2.70
2023-11-18T13:14:37.491Z,3.28
2023-11-18T13:15:41.695Z,2.58
2023-11-18T13:16:47.198Z,1.77
2023-11-18T13:18:00.297Z,2.80
2023-11-18T13:19:06.450Z,2.38
2023-11-18T13:20:16.229Z,2.83
2023-11-18T13:21:21.567Z,2.88
2023-11-18T13:22:35.587Z,3.22
2023-11-18T13:23:51.460Z,3.35
2023-11-18T13:24:54.151Z,2.20
2023-11-18T13:26:01.455Z,4.03
2023-11-18T13:27:05.891Z,2.45
2023-11-18T13:28:12.228Z,2.28
2023-11-18T13:29:14.918Z,4.40
2023-11-18T13:30:18.725Z,2.20
2023-11-18T13:31:21.670Z,2.33
2023-11-18T13:32:27.024Z,2.42
2023-11-18T13:33:29.956Z,1.25
2023-11-18T13:34:39.265Z,6.55
2023-11-18T13:35:44.297Z,1.98
2023-11-18T13:36:49.943Z,2.47
2023-11-18T13:37:55.128Z,1.80
2023-11-18T13:38:57.982Z,5.05
2023-11-18T13:40:01.296Z,5.13
2023-11-18T13:41:04.845Z,3.53
2023-11-18T13:42:24.475Z,3.83
2023-11-18T13:43:27.607Z,3.05
2023-11-18T13:44:39.323Z,2.97
2023-11-18T13:45:43.765Z,3.60
2023-11-18T13:46:46.672Z,4.45
2023-11-18T13:47:56.651Z,4.65
2023-11-18T13:49:00.421Z,3.78
2023-11-18T13:50:08.188Z,3.33
2023-11-18T13:51:16.666Z,5.85
2023-11-18T13:52:20.623Z,2.72
2023-11-18T13:53:23.869Z,3.10
2023-11-18T13:54:31.825Z,3.65
2023-11-18T13:55:37.351Z,5.47
2023-11-18T13:56:41.618Z,6.03
2023-11-18T13:57:45.260Z,4.30
2023-11-18T13:58:49.064Z,3.47
2023-11-18T13:59:52.672Z,3.42
2023-11-18T14:00:57.110Z,2.35
2023-11-18T14:02:04.043Z,4.05
2023-11-18T14:03:09.031Z,5.50
2023-11-18T14:04:12.092Z,2.90
2023-11-18T14:05:18.929Z,4.05
2023-11-18T14:06:24.027Z,4.53
2023-11-18T14:07:26.932Z,5.22
2023-11-18T14:08:30.813Z,4.90
2023-11-18T14:09:37.720Z,6.00
2023-11-18T14:10:42.688Z,7.22
2023-11-18T14:11:46.293Z,3.85
2023-11-18T14:13:14.413Z,2.97
2023-11-18T14:14:18.937Z,4.03
2023-11-18T14:15:21.849Z,2.88
2023-11-18T14:16:25.096Z,2.78
2023-11-18T14:17:27.848Z,5.22
2023-11-18T14:18:30.800Z,3.00
2023-11-18T14:19:36.282Z,5.95
2023-11-18T14:20:39.037Z,4.65
2023-11-18T14:21:42.228Z,5.35
2023-11-18T14:22:44.877Z,5.65
2023-11-18T14:23:47.590Z,2.92
2023-11-18T14:24:50.395Z,3.85
2023-11-18T14:25:53.122Z,4.15
2023-11-18T14:26:57.985Z,3.28
2023-11-18T14:28:01.115Z,2.60
2023-11-18T14:29:03.890Z,1.77
2023-11-18T14:30:10.443Z,4.03
2023-11-18T14:31:13.432Z,4.95
2023-11-18T14:32:16.131Z,2.95
2023-11-18T14:33:18.906Z,4.45
2023-11-18T14:34:21.704Z,3.92
2023-11-18T14:35:26.730Z,1.92
2023-11-18T14:36:31.796Z,2.47
2023-11-18T14:37:34.566Z,2.75
2023-11-18T14:38:38.141Z,2.97
2023-11-18T14:39:41.746Z,4.10
2023-11-18T14:40:44.379Z,3.30
2023-11-18T14:41:47.577Z,2.30
2023-11-18T14:42:50.164Z,2.75
2023-11-18T14:43:56.058Z,2.92
2023-11-18T14:44:58.746Z,2.65